Huvudsida
METAR-TAF:

METAR-TAF

Flygplatser :

Båtsfjords flygplats

Båtsfjords, Norge

latitud: 70-38N, longitud: 029-44E, höjd: 10 m

Aktuellt väderrapport

Denna rapport gjordes för 10 minuter sedan, klockan 13:50 UTC
Vind 12 kt från nordost
Temperatur 8°C
Fuktighet 100%
Tryck 997 hPa
Sikt: 0800 m
dimma, lätta regnskurar

METAR: ENBS 191350Z 04012KT 0800 FG -SHRA VV002 08/08 Q0997

Tid: 16:00 (14:00 UTC)


TAF: saknas

Aktuella väderrapporter och prognoser från 4000 flygplatser (METAR- och TAF-rapporter).

De tillgängliga stationerna syns som gula och röda prickar på kartan.

För musen över prickarna för att se namnen på stationerna.

Klicka sedan för att få väderrapporter och prognoser.

För att ändra kartan: Klicka på de gröna knapparna med ett svart kors på för att zooma in; den gröna knappen med ett streck på för att zooma ut; eller på de gröna pilarna för angränsande kartor.


METAR-TAF: